• Join FlightAware (Why Join?)
  • Login
  • US Flag 
05:51AM EST


 

Airport Tracker/Info


-or-


 

Live Flight TrackerFlight Track Log ✈ AAL963 ✈ 10-Jul-2013 ✈ KDFW - SBGR / GRU

Flight Track Log - Related Links

Times and Time Zones

All times are in EDT time to prevent confusion due to time zone crossing. See the AAL963 flight status page for this flight to view local times or setup timezone preferences in your user account.

Time Position Orientation Groundspeed Altitude Reporting Facility
EDT Latitude Longitude Course Direction KTS MPH feet Rate Location/Type
09:50PM 32.8680 -97.0300 180° South 182 209 1,700  Level FlightAware
09:51PM 32.8340 -97.0300 180° South 197 227 2,500 960 Climbing FlightAware
09:51PM 32.8080 -97.0300 180° South 223 257 2,800 840 Climbing FlightAware
09:52PM 32.7770 -97.0300 180° South 248 285 3,300 1,500 Climbing FlightAware
09:52PM 32.7440 -97.0300 180° South 253 291 4,200 1,980 Climbing FlightAware
09:53PM 32.6870 -97.0200 172° South 258 297 5,900 1,920 Climbing FlightAware
09:53PM 32.6560 -97.0050 158° South 266 306 6,700 1,920 Climbing FlightAware
09:54PM 32.6240 -96.9880 156° South 270 311 7,700 1,800 Climbing FlightAware
09:54PM 32.5920 -96.9710 156° South 281 323 8,400 1,620 Climbing FlightAware
09:54PM 32.5770 -96.9630 156° South 283 326 8,800 2,100 Climbing FlightAware
09:55PM 32.5430 -96.9470 158° South 284 327 9,800 1,800 Climbing FlightAware
09:56PM 32.4890 -96.9190 156° South 298 343 11,000 1,740 Climbing FlightAware
09:56PM 32.4310 -96.8900 157° South 307 353 12,400 1,620 Climbing FlightAware
09:57PM 32.3770 -96.8630 157° South 323 372 13,300 960 Climbing FlightAware
09:58PM 32.3140 -96.8310 157° South 362 417 13,800 840 Climbing FlightAware
09:58PM 32.2490 -96.8020 159° South 388 447 14,500 1,020 Climbing FlightAware
09:59PM 32.1700 -96.7720 162° South 411 473 15,300 1,320 Climbing FlightAware
10:00PM 32.0574 -96.7295 162° South 429 494 16,800 1,620 Climbing FlightAware ADS-B
10:01PM 31.9973 -96.7065 162° South 431 496 17,800 1,440 Climbing FlightAware ADS-B
10:01PM 31.9265 -96.6794 162° South 443 510 18,500 1,320 Climbing FlightAware ADS-B
10:02PM 31.8670 -96.6567 162° South 449 517 19,300 1,560 Climbing FlightAware ADS-B
10:02PM 31.7968 -96.6278 161° South 453 521 20,200 1,560 Climbing FlightAware ADS-B
10:03PM 31.7342 -96.6018 161° South 455 524 21,100 1,560 Climbing FlightAware ADS-B
10:04PM 31.6113 -96.5515 161° South 459 528 22,700 1,380 Climbing FlightAware ADS-B
10:05PM 31.4875 -96.5015 161° South 467 537 24,000 1,200 Climbing FlightAware ADS-B
10:05PM 31.4248 -96.4784 163° South 473 544 24,600 1,140 Climbing FlightAware ADS-B
10:06PM 31.3601 -96.4547 163° South 477 549 25,200 960 Climbing FlightAware ADS-B
10:07PM 31.2960 -96.4309 162° South 484 557 25,600 840 Climbing FlightAware ADS-B
10:07PM 31.2306 -96.4066 162° South 488 562 26,100 1,020 Climbing FlightAware ADS-B
10:07PM 31.1958 -96.3900 154° Southeast 490 564 26,400 1,140 Climbing FlightAware ADS-B
10:07PM 31.1769 -96.3769 149° Southeast 489 563 26,600 1,200 Climbing FlightAware ADS-B
10:08PM 31.1677 -96.3692 144° Southeast 489 563 26,700 1,020 Climbing FlightAware ADS-B
10:08PM 31.1486 -96.3499 139° Southeast 489 563 26,900 1,140 Climbing FlightAware ADS-B
10:08PM 31.0990 -96.2753 127° Southeast 488 562 27,600 1,080 Climbing FlightAware ADS-B
10:09PM 31.0593 -96.2108 126° Southeast 491 565 28,100 960 Climbing FlightAware ADS-B
10:09PM 31.0192 -96.1451 125° Southeast 493 567 28,600 960 Climbing FlightAware ADS-B
10:10PM 30.9783 -96.0784 126° Southeast 495 570 29,100 960 Climbing FlightAware ADS-B
10:10PM 30.9364 -96.0104 126° Southeast 498 573 29,600 840 Climbing FlightAware ADS-B
10:11PM 30.8960 -95.9450 126° Southeast 500 575 30,000 1,080 Climbing FlightAware ADS-B
10:12PM 30.8145 -95.8137 126° Southeast 493 567 31,300 1,200 Climbing FlightAware ADS-B
10:12PM 30.7744 -95.7494 126° Southeast 491 565 31,900 480 Climbing FlightAware ADS-B
10:15PM 30.5604 -95.4067 126° Southeast 489 563 33,000 300 Climbing FlightAware ADS-B
10:16PM 30.5203 -95.3429 126° Southeast 488 562 33,000  Level FlightAware ADS-B
10:16PM 30.4801 -95.2788 126° Southeast 489 563 33,000  Level FlightAware ADS-B
10:17PM 30.4395 -95.2144 126° Southeast 488 562 33,000  Level FlightAware ADS-B
10:17PM 30.3989 -95.1503 126° Southeast 488 562 33,000  Level FlightAware ADS-B
10:18PM 30.3169 -95.0205 126° Southeast 487 560 33,000  Level FlightAware ADS-B
10:20PM 30.1557 -94.7670 126° Southeast 487 560 33,000  Level FlightAware ADS-B
10:21PM 30.0754 -94.6411 126° Southeast 488 562 33,000  Level FlightAware ADS-B
10:22PM 30.0347 -94.5775 126° Southeast 487 560 33,000  Level FlightAware ADS-B
10:22PM 29.9942 -94.5144 127° Southeast 488 562 33,000  Level FlightAware ADS-B
10:23PM 29.9130 -94.3881 127° Southeast 489 563 33,000  Level FlightAware ADS-B
10:24PM 29.8719 -94.3241 127° Southeast 488 562 33,000  Level FlightAware ADS-B
10:26PM 29.7122 -94.0776 127° Southeast 485 558 33,000  Level FlightAware ADS-B
10:28PM 29.4907 -93.8700 144° Southeast 488 562 33,000  Level FlightAware ADS-B
10:28PM 29.4350 -93.8228 144° Southeast 487 560 33,000  Level FlightAware ADS-B
10:29PM 29.3780 -93.7743 143° Southeast 487 560 33,000  Level FlightAware ADS-B
10:29PM 29.3029 -93.7104 143° Southeast 486 559 33,000  Level FlightAware ADS-B
10:30PM 29.2419 -93.6586 143° Southeast 486 559 33,000 240 Level FlightAware ADS-B
10:31PM 29.1867 -93.6118 143° Southeast 487 560 33,300 780 Climbing FlightAware ADS-B
10:31PM 29.1320 -93.5655 144° Southeast 485 558 33,800 960 Climbing FlightAware ADS-B
10:32PM 29.0766 -93.5186 143° Southeast 483 556 34,300 960 Climbing FlightAware ADS-B
10:32PM 29.0215 -93.4721 144° Southeast 478 550 34,800 660 Climbing FlightAware ADS-B
10:33PM 28.9674 -93.4265 144° Southeast 477 549 35,000 180 Climbing FlightAware ADS-B
10:33PM 28.9141 -93.3816 144° Southeast 476 548 35,000  Level FlightAware ADS-B
10:34PM 28.8597 -93.3360 144° Southeast 475 547 35,000 -60 Level FlightAware ADS-B
10:35PM 28.7339 -93.2283 144° Southeast 474 545 34,900 -60 Descending Houston Center
10:36PM 28.6278 -93.1406 144° Southeast 473 544 34,900  Level Houston Center
10:37PM 28.5219 -93.0519 144° Southeast 472 543 35,000  Climbing Houston Center
10:38PM 28.4161 -92.9639 144° Southeast 472 543 35,000  Level Houston Center
10:39PM 28.3103 -92.8758 144° Southeast 472 543 35,000  Level Houston Center
10:40PM 28.2039 -92.7867 144° Southeast 474 545 35,000  Level Houston Center
10:41PM 28.0972 -92.6983 144° Southeast 475 547 35,000  Level Houston Center
10:47PM 27.4231 -92.1496 144° Southeast 478 550 35,000  Level FlightAware ADS-B
10:48PM 27.3231 -92.0694 144° Southeast 476 548 35,000  Level Houston Center
10:50PM 27.1811 -91.9458 142° Southeast  Level FlightAware Approximate
10:57PM 26.4402 -91.3584 143° Southeast  Level FlightAware Approximate
10:58PM 26.3358 -91.2723 145° Southeast  Level FlightAware Approximate
10:59PM 26.2293 -91.1895 145° Southeast  Level FlightAware Approximate
11:00PM 26.1228 -91.1069 145° Southeast  Level FlightAware Approximate
11:01PM 26.0162 -91.0244 145° Southeast  Level FlightAware Approximate
11:02PM 25.9096 -90.9421 145° Southeast  Level FlightAware Approximate
11:03PM 25.8034 -90.8593 144° Southeast  Level FlightAware Approximate
11:04PM 25.6981 -90.7749 144° Southeast  Level FlightAware Approximate
11:05PM 25.5928 -90.6907 144° Southeast  Level FlightAware Approximate
11:06PM 25.4874 -90.6069 145° Southeast  Level FlightAware Approximate
11:07PM 25.3810 -90.5246 145° Southeast  Level FlightAware Approximate
11:08PM 25.2745 -90.4424 145° Southeast  Level FlightAware Approximate
11:09PM 25.1680 -90.3604 145° Southeast  Level FlightAware Approximate
11:10PM 25.0615 -90.2786 145° Southeast  Level FlightAware Approximate
11:11PM 24.9549 -90.1968 145° Southeast  Level FlightAware Approximate
11:12PM 24.8483 -90.1153 145° Southeast  Level FlightAware Approximate
11:13PM 24.7416 -90.0338 145° Southeast  Level FlightAware Approximate
11:14PM 24.6349 -89.9525 145° Southeast  Level FlightAware Approximate
11:15PM 24.5281 -89.8713 145° Southeast  Level FlightAware Approximate
11:16PM 24.4230 -89.7880 146° Southeast  Level FlightAware Approximate
11:17PM 24.3159 -89.7075 146° Southeast  Level FlightAware Approximate
11:18PM 24.2087 -89.6272 146° Southeast  Level FlightAware Approximate
11:19PM 24.1015 -89.5470 146° Southeast  Level FlightAware Approximate
11:20PM 23.9943 -89.4669 146° Southeast  Level FlightAware Approximate
11:21PM 23.8870 -89.3870 146° Southeast  Level FlightAware Approximate
11:22PM 23.7797 -89.3072 146° Southeast  Level FlightAware Approximate
11:23PM 23.6723 -89.2275 146° Southeast  Level FlightAware Approximate
11:23PM 23.4650 -89.0730 146° Southeast 494 568 35,000  Level FlightAware
11:24PM 23.5649 -89.1480 146° Southeast  Level FlightAware Approximate
11:24PM 23.3760 -89.0050 145° Southeast 494 568 35,000  Level FlightAware
11:25PM 23.2690 -88.9250 146° Southeast 495 570 35,000  Level FlightAware
11:26PM 23.1740 -88.8550 146° Southeast 495 570 35,000  Level FlightAware
11:27PM 23.0970 -88.7980 146° Southeast 494 568 35,000  Level FlightAware
11:27PM 23.0150 -88.7370 146° Southeast 493 567 35,000  Level FlightAware
11:28PM 22.9370 -88.6800 146° Southeast 492 566 35,000  Level FlightAware
11:29PM 22.8720 -88.6320 146° Southeast 492 566 35,000  Level FlightAware
11:29PM 22.7790 -88.5630 146° Southeast 494 568 35,000  Level FlightAware
11:30PM 22.7060 -88.5090 146° Southeast 495 570 35,000  Level FlightAware
11:31PM 22.6190 -88.4440 145° Southeast 496 571 35,000  Level FlightAware
11:31PM 22.5440 -88.3750 140° Southeast 499 574 35,000  Level FlightAware
11:32PM 22.5170 -88.3480 137° Southeast 498 573 35,000  Level FlightAware
11:33PM 22.4340 -88.2630 137° Southeast 499 574 35,000  Level FlightAware
11:34PM 22.3600 -88.1860 136° Southeast 499 574 35,000  Level FlightAware
11:35PM 22.2880 -88.1140 137° Southeast 499 574 35,000  Level FlightAware
11:35PM 22.2370 -88.0610 136° Southeast 499 574 35,000  Level FlightAware
11:36PM 22.1690 -87.9940 138° Southeast 481 554 35,000  Level FlightAware
11:37PM 22.0970 -87.9210 137° Southeast 484 557 35,000  Level FlightAware
11:37PM 22.0170 -87.8410 137° Southeast 492 566 35,000  Level FlightAware
11:38PM 21.9390 -87.7620 137° Southeast 491 565 35,000  Level FlightAware
11:39PM 21.8630 -87.6870 138° Southeast 491 565 35,000  Level FlightAware
11:39PM 21.7980 -87.6210 137° Southeast 493 567 35,000  Level FlightAware
11:40PM 21.6790 -87.5040 138° Southeast 493 567 35,000  Level FlightAware
11:41PM 21.6140 -87.4390 137° Southeast 493 567 35,000  Level FlightAware
11:41PM 21.5420 -87.3670 137° Southeast 493 567 35,000  Level FlightAware
11:42PM 21.4870 -87.3130 138° Southeast 494 568 35,000  Level FlightAware
11:43PM 21.4120 -87.2390 137° Southeast 494 568 35,000  Level FlightAware
11:43PM 21.3430 -87.1720 138° Southeast 495 570 35,000  Level FlightAware
11:44PM 21.2700 -87.0990 137° Southeast 495 570 35,000  Level FlightAware
11:45PM 21.2010 -87.0320 138° Southeast 494 568 35,000  Level FlightAware
11:46PM 21.1280 -86.9600 137° Southeast 495 570 35,000  Level FlightAware
11:46PM 21.0590 -86.8920 137° Southeast 496 571 35,000  Level FlightAware
11:47PM 20.9960 -86.8300 137° Southeast 495 570 35,000  Level FlightAware
11:48PM 20.9270 -86.7640 138° Southeast 493 567 35,000  Level FlightAware
11:48PM 20.8550 -86.6930 137° Southeast 493 567 35,000  Level FlightAware
11:49PM 20.7890 -86.6290 138° Southeast 493 567 35,000  Level FlightAware
11:50PM 20.7120 -86.5550 138° Southeast 494 568 35,000  Level FlightAware
11:50PM 20.6450 -86.4900 138° Southeast 489 563 35,000  Level FlightAware
11:51PM 20.5700 -86.4180 138° Southeast 486 559 35,000  Level FlightAware
11:52PM 20.4810 -86.3310 138° Southeast 483 556 35,000  Level FlightAware
11:53PM 20.4050 -86.2570 138° Southeast 482 555 35,000  Level FlightAware
11:53PM 20.3550 -86.2080 137° Southeast 482 555 35,000  Level FlightAware
11:54PM 20.3050 -86.1580 137° Southeast 482 555 35,000  Level FlightAware
11:55PM 20.1970 -86.0580 139° Southeast 495 570 35,000  Level FlightAware
11:55PM 20.1280 -85.9920 138° Southeast 497 572 35,000  Level FlightAware
11:56PM 20.0650 -85.9320 138° Southeast 499 574 35,000  Level FlightAware
11:57PM 19.9970 -85.8670 138° Southeast 501 577 35,000  Level FlightAware
11:57PM 19.9190 -85.7940 139° Southeast 501 577 35,000  Level FlightAware
11:58PM 19.8510 -85.7300 138° Southeast 501 577 35,000  Level FlightAware
11:59PM 19.7740 -85.6570 138° Southeast 502 578 35,000  Level FlightAware
12:00AM 19.7010 -85.5890 139° Southeast 502 578 35,000  Level FlightAware
12:00AM 19.6280 -85.5210 139° Southeast 503 579 35,000  Level FlightAware
12:01AM 19.5760 -85.4710 138° Southeast 503 579 35,000  Level FlightAware
12:02AM 19.4920 -85.3930 139° Southeast 501 577 35,000  Level FlightAware
12:02AM 19.4240 -85.3290 138° Southeast 500 575 35,000  Level FlightAware
12:03AM 19.3500 -85.2600 139° Southeast 500 575 35,000  Level FlightAware
12:04AM 19.2800 -85.1940 138° Southeast 501 577 35,000  Level FlightAware
12:04AM 19.2050 -85.1240 139° Southeast 501 577 35,000  Level FlightAware
12:05AM 19.1520 -85.0740 138° Southeast 501 577 35,000  Level FlightAware
12:06AM 19.0820 -85.0070 138° Southeast 501 577 35,000  Level FlightAware
12:07AM 19.0120 -84.9400 138° Southeast 501 577 35,000  Level FlightAware
12:07AM 18.9590 -84.8890 138° Southeast 501 577 35,000  Level FlightAware
12:08AM 18.9050 -84.8380 138° Southeast 501 577 35,000  Level FlightAware
12:08AM 18.8520 -84.7880 138° Southeast 501 577 35,000  Level FlightAware
12:09AM 18.7820 -84.7210 138° Southeast 501 577 35,000  Level FlightAware
12:10AM 18.7290 -84.6710 138° Southeast 501 577 35,000  Level FlightAware
12:11AM 18.6190 -84.5660 138° Southeast 501 577 35,000  Level FlightAware
12:12AM 18.5500 -84.5010 138° Southeast 501 577 35,000  Level FlightAware
12:12AM 18.4980 -84.4510 138° Southeast 501 577 35,000  Level FlightAware
12:13AM 18.4450 -84.4010 138° Southeast 501 577 35,000  Level FlightAware
12:14AM 18.3730 -84.3330 138° Southeast 501 577 35,000  Level FlightAware
12:16AM 18.2161 -84.1795 137° Southeast  Level Estimated
12:17AM 18.1210 -84.0866 137° Southeast  Level Estimated
12:18AM 18.0257 -83.9938 137° Southeast  Level Estimated
12:19AM 17.9305 -83.9011 137° Southeast  Level Estimated
12:20AM 17.8352 -83.8085 137° Southeast  Level Estimated
12:21AM 17.7399 -83.7160 137° Southeast  Level Estimated
12:22AM 17.6445 -83.6236 137° Southeast  Level Estimated
12:23AM 17.5491 -83.5312 137° Southeast  Level Estimated
12:24AM 17.4537 -83.4390 137° Southeast  Level Estimated
12:25AM 17.3582 -83.3469 137° Southeast  Level Estimated
12:26AM 17.2626 -83.2549 137° Southeast  Level Estimated
12:27AM 17.1670 -83.1630 137° Southeast  Level Estimated
12:28AM 17.0714 -83.0711 137° Southeast  Level Estimated
12:29AM 16.9757 -82.9794 137° Southeast  Level Estimated
12:30AM 16.8800 -82.8878 137° Southeast  Level Estimated
12:31AM 16.7843 -82.7962 138° Southeast  Level Estimated
12:32AM 16.6885 -82.7048 138° Southeast  Level Estimated
12:33AM 16.5927 -82.6134 138° Southeast  Level Estimated
12:34AM 16.4968 -82.5221 138° Southeast  Level Estimated
12:35AM 16.4009 -82.4309 138° Southeast  Level Estimated
12:36AM 16.3049 -82.3399 138° Southeast  Level Estimated
12:37AM 16.2090 -82.2489 138° Southeast  Level Estimated
12:38AM 16.1129 -82.1579 138° Southeast  Level Estimated
12:39AM 16.0169 -82.0671 138° Southeast  Level Estimated
12:40AM 15.9208 -81.9764 138° Southeast  Level Estimated
12:41AM 15.8246 -81.8857 138° Southeast  Level Estimated
12:42AM 15.7284 -81.7952 138° Southeast  Level Estimated
12:43AM 15.6322 -81.7047 138° Southeast  Level Estimated
12:44AM 15.5360 -81.6143 138° Southeast  Level Estimated
12:45AM 15.4397 -81.5240 138° Southeast  Level Estimated
12:46AM 15.3434 -81.4337 138° Southeast  Level Estimated
12:47AM 15.2470 -81.3436 138° Southeast  Level Estimated
12:48AM 15.1506 -81.2535 138° Southeast  Level Estimated
12:49AM 15.0544 -81.1637 138° Southeast  Level Estimated
12:50AM 14.9581 -81.0740 138° Southeast  Level Estimated
12:51AM 14.8617 -80.9843 138° Southeast  Level Estimated
12:52AM 14.7654 -80.8947 138° Southeast  Level Estimated
12:53AM 14.6690 -80.8052 138° Southeast  Level Estimated
12:54AM 14.5725 -80.7158 138° Southeast  Level Estimated
12:55AM 14.4761 -80.6264 138° Southeast  Level Estimated
12:56AM 14.3795 -80.5372 138° Southeast  Level Estimated
12:57AM 14.2830 -80.4480 138° Southeast  Level Estimated
12:58AM 14.1864 -80.3589 138° Southeast  Level Estimated
12:59AM 14.0898 -80.2698 138° Southeast  Level Estimated
01:00AM 13.9932 -80.1809 138° Southeast  Level Estimated
01:01AM 13.8965 -80.0920 138° Southeast  Level Estimated
01:02AM 13.7998 -80.0032 138° Southeast  Level Estimated
01:03AM 13.7031 -79.9144 138° Southeast  Level Estimated
01:04AM 13.6063 -79.8258 138° Southeast  Level Estimated
01:05AM 13.5095 -79.7372 138° Southeast  Level Estimated
01:06AM 13.4127 -79.6487 138° Southeast  Level Estimated
01:07AM 13.3158 -79.5602 138° Southeast  Level Estimated
01:08AM 13.2189 -79.4718 138° Southeast  Level Estimated
01:09AM 13.1220 -79.3835 138° Southeast  Level Estimated
01:10AM 13.0251 -79.2953 138° Southeast  Level Estimated
01:11AM 12.9281 -79.2071 138° Southeast  Level Estimated
01:12AM 12.8311 -79.1190 138° Southeast  Level Estimated
01:13AM 12.7340 -79.0310 138° Southeast  Level Estimated
01:14AM 12.6370 -78.9430 139° Southeast  Level Estimated
01:15AM 12.5399 -78.8551 139° Southeast  Level Estimated
01:16AM 12.4427 -78.7673 139° Southeast  Level Estimated
01:17AM 12.3456 -78.6795 139° Southeast  Level Estimated
01:18AM 12.2484 -78.5918 139° Southeast  Level Estimated
01:19AM 12.1512 -78.5041 139° Southeast  Level Estimated
01:20AM 12.0540 -78.4166 139° Southeast  Level Estimated
01:21AM 11.9567 -78.3290 139° Southeast  Level Estimated
01:22AM 11.8594 -78.2416 139° Southeast  Level Estimated
01:23AM 11.7621 -78.1542 139° Southeast  Level Estimated
01:24AM 11.6648 -78.0669 139° Southeast  Level Estimated
01:24AM 11.0220 -77.1040 139° Southeast 501 577 37,000  Level FlightAware
01:25AM 11.5674 -77.9796 139° Southeast  Level Estimated
01:25AM 10.9410 -77.0050 130° Southeast 499 574 37,000  Level FlightAware
01:26AM 11.4700 -77.8924 139° Southeast  Level Estimated
01:26AM 10.8950 -76.9500 130° Southeast 499 574 37,000  Level FlightAware
01:27AM 10.8320 -76.8740 130° Southeast 499 574 37,000  Level FlightAware
01:27AM 10.7570 -76.7820 130° Southeast 492 566 37,000  Level FlightAware
01:28AM 10.6830 -76.6920 130° Southeast 491 565 37,000  Level FlightAware
01:29AM 10.6140 -76.6090 130° Southeast 485 558 37,000  Level FlightAware
01:30AM 10.5480 -76.5280 130° Southeast 487 560 37,000  Level FlightAware
01:30AM 10.4830 -76.4590 134° Southeast 484 557 37,000  Level FlightAware
01:31AM 10.4260 -76.4060 138° Southeast 483 556 37,000  Level FlightAware
01:32AM 10.3600 -76.3450 138° Southeast 482 555 37,000  Level FlightAware
01:32AM 10.2900 -76.2790 137° Southeast 483 556 37,000  Level FlightAware
01:33AM 10.2300 -76.2240 138° Southeast 483 556 37,000  Level FlightAware
01:34AM 10.1580 -76.1640 141° Southeast 484 557 37,000  Level FlightAware
01:34AM 10.0680 -76.1220 155° Southeast 493 567 37,000  Level FlightAware
01:35AM 9.9890 -76.1100 171° South 493 567 37,000  Level FlightAware
01:36AM 9.8960 -76.1040 176° South 485 558 37,000  Level FlightAware
01:36AM 9.7960 -76.1020 179° South 481 554 37,000  Level FlightAware
01:37AM 9.7090 -76.1050 182° South 477 549 37,000  Level FlightAware
01:38AM 9.6190 -76.1100 183° South 478 550 37,000  Level FlightAware
01:38AM 9.5350 -76.0960 171° South 478 550 37,000  Level FlightAware
01:39AM 9.4460 -76.0440 150° Southeast 484 557 37,000  Level FlightAware
01:40AM 9.3630 -75.9820 144° Southeast 480 552 37,000  Level FlightAware
01:41AM 9.2900 -75.9240 142° Southeast 480 552 37,000  Level FlightAware
01:41AM 9.2090 -75.8610 142° Southeast 478 550 37,000  Level FlightAware
01:42AM 9.1330 -75.8010 142° Southeast 478 550 37,000  Level FlightAware
01:43AM 9.0270 -75.7180 142° Southeast 475 547 37,000  Level FlightAware
01:44AM 8.9600 -75.6660 143° Southeast 475 547 37,000  Level FlightAware
01:45AM 8.8850 -75.6060 142° Southeast 475 547 37,000  Level FlightAware
01:46AM 8.7700 -75.5410 151° Southeast 479 551 37,000  Level FlightAware
01:46AM 8.6900 -75.4910 148° Southeast 479 551 37,000  Level FlightAware
01:47AM 8.5980 -75.4300 147° Southeast 479 551 37,000  Level FlightAware
01:48AM 8.5230 -75.3810 147° Southeast 485 558 37,000  Level FlightAware
01:48AM 8.4470 -75.3310 147° Southeast 487 560 37,000  Level FlightAware
01:49AM 8.3730 -75.2810 146° Southeast 488 562 37,000  Level FlightAware
01:50AM 8.3070 -75.2190 137° Southeast 484 557 37,000  Level FlightAware
01:50AM 8.2460 -75.1590 136° Southeast 486 559 37,000  Level FlightAware
01:51AM 8.1730 -75.0830 134° Southeast 485 558 37,000  Level FlightAware
01:52AM 8.1110 -75.0200 135° Southeast 483 556 37,000  Level FlightAware
01:53AM 8.0460 -74.9390 129° Southeast 480 552 37,000  Level FlightAware
01:53AM 7.9920 -74.8680 128° Southeast 482 555 37,000  Level FlightAware
01:54AM 7.9490 -74.8030 124° Southeast 478 550 37,000  Level FlightAware
01:54AM 7.9240 -74.7190 107° East 477 549 37,000  Level FlightAware
01:55AM 7.8910 -74.6240 109° East 489 563 37,000  Level FlightAware
01:56AM 7.8120 -74.5400 134° Southeast 499 574 37,000  Level FlightAware
01:57AM 7.7380 -74.4850 144° Southeast 501 577 37,000  Level FlightAware
01:57AM 7.6520 -74.4260 146° Southeast 503 579 37,000  Level FlightAware
01:58AM 7.5740 -74.3740 147° Southeast 497 572 37,000  Level FlightAware
01:59AM 7.4960 -74.3230 147° Southeast 496 571 37,000  Level FlightAware
02:00AM 7.3240 -74.2070 139° Southeast 496 571 37,000  Level FlightAware
02:01AM 7.3307 -74.1756 139° Southeast  Level FlightAware Approximate
02:01AM 7.2520 -74.1610 148° Southeast 491 565 37,000  Level FlightAware
02:02AM 7.1340 -74.0820 146° Southeast 489 563 37,000  Level FlightAware
02:03AM 7.0590 -74.0330 147° Southeast 486 559 37,000  Level FlightAware
02:03AM 6.9830 -73.9820 146° Southeast 485 558 37,000  Level FlightAware
02:04AM 6.8960 -73.9240 147° Southeast 486 559 37,000  Level FlightAware
02:05AM 6.8120 -73.8690 147° Southeast 487 560 37,000  Level FlightAware
02:05AM 6.7360 -73.8190 147° Southeast 485 558 37,000  Level FlightAware
02:06AM 6.6700 -73.7750 146° Southeast 485 558 37,000  Level FlightAware
02:07AM 6.5990 -73.7180 141° Southeast 484 557 37,000  Level FlightAware
02:07AM 6.5250 -73.6520 138° Southeast 483 556 37,000  Level FlightAware
02:08AM 6.4590 -73.5930 138° Southeast 481 554 37,000  Level FlightAware
02:09AM 6.3850 -73.5270 138° Southeast 479 551 37,000  Level FlightAware
02:10AM 6.3200 -73.4710 139° Southeast 482 555 37,000  Level FlightAware
02:10AM 6.2360 -73.4330 156° South 489 563 37,000  Level FlightAware
02:11AM 6.0870 -73.3880 163° South 487 560 37,000  Level FlightAware
02:12AM 6.0110 -73.3450 151° Southeast 478 550 37,000  Level FlightAware
02:13AM 5.9330 -73.2910 145° Southeast 478 550 37,000  Level FlightAware
02:13AM 5.8530 -73.2380 147° Southeast 478 550 37,000  Level FlightAware
02:14AM 5.7900 -73.1950 146° Southeast 479 551 37,000  Level FlightAware
02:16AM 5.6480 -73.1040 139° Southeast 479 551 37,000  Level FlightAware
02:17AM 5.5574 -72.9934 139° Southeast  Level Estimated
02:17AM 5.4560 -72.9790 147° Southeast 479 551 37,000  Level FlightAware
02:18AM 5.3680 -72.9210 147° Southeast 480 552 37,000  Level FlightAware
02:19AM 5.2580 -72.8490 147° Southeast 482 555 37,000  Level FlightAware
02:19AM 5.1770 -72.7960 147° Southeast 481 554 37,000  Level FlightAware
02:20AM 5.1020 -72.7460 146° Southeast 481 554 37,000  Level FlightAware
02:21AM 5.0280 -72.6970 147° Southeast 481 554 37,000  Level FlightAware
02:22AM 4.9700 -72.6580 146° Southeast 481 554 37,000  Level FlightAware
02:23AM 4.8760 -72.5940 146° Southeast 481 554 37,000  Level FlightAware
02:23AM 4.8200 -72.5560 146° Southeast 481 554 37,000  Level FlightAware
02:24AM 4.7450 -72.5050 146° Southeast 481 554 37,000  Level FlightAware
02:25AM 4.6880 -72.4670 146° Southeast 481 554 37,000  Level FlightAware
02:25AM 4.6130 -72.4160 146° Southeast 481 554 37,000  Level FlightAware
02:26AM 4.5560 -72.3780 146° Southeast 481 554 37,000  Level FlightAware
02:27AM 4.4620 -72.3140 146° Southeast 481 554 37,000  Level FlightAware
02:28AM 4.4060 -72.2760 146° Southeast 481 554 37,000  Level FlightAware
02:28AM 4.3310 -72.2250 146° Southeast 481 554 37,000  Level FlightAware
02:29AM 4.2730 -72.1860 146° Southeast 481 554 37,000  Level FlightAware
02:32AM 4.0231 -71.9684 139° Southeast  Level Estimated
02:33AM 3.9251 -71.8831 139° Southeast  Level Estimated
02:34AM 3.8277 -71.7982 139° Southeast  Level Estimated
02:35AM 3.7301 -71.7134 139° Southeast  Level Estimated
02:36AM 3.6326 -71.6286 139° Southeast  Level Estimated
02:37AM 3.5351 -71.5438 139° Southeast  Level Estimated
02:38AM 3.4376 -71.4590 139° Southeast  Level Estimated
02:39AM 3.3400 -71.3743 139° Southeast  Level Estimated
02:40AM 3.2425 -71.2895 139° Southeast  Level Estimated
02:41AM 3.1450 -71.2048 139° Southeast  Level Estimated
02:42AM 3.0474 -71.1201 139° Southeast  Level Estimated
02:43AM 2.9498 -71.0354 139° Southeast  Level Estimated
02:44AM 2.8523 -70.9507 139° Southeast  Level Estimated
02:45AM 2.7547 -70.8661 139° Southeast  Level Estimated
02:46AM 2.6571 -70.7814 139° Southeast  Level Estimated
02:47AM 2.5595 -70.6968 139° Southeast  Level Estimated
02:48AM 2.4619 -70.6122 139° Southeast  Level Estimated
02:49AM 2.3643 -70.5276 139° Southeast  Level Estimated
02:50AM 2.2667 -70.4430 139° Southeast  Level Estimated
02:51AM 2.1691 -70.3584 139° Southeast  Level Estimated
02:52AM 2.0715 -70.2738 139° Southeast  Level Estimated
02:53AM 1.9739 -70.1893 139° Southeast  Level Estimated
02:54AM 1.8763 -70.1047 139° Southeast  Level Estimated
02:55AM 1.7786 -70.0202 139° Southeast  Level Estimated
02:56AM 1.6810 -69.9356 139° Southeast  Level Estimated
02:57AM 1.5835 -69.8513 139° Southeast  Level Estimated
02:58AM 1.4861 -69.7669 139° Southeast  Level Estimated
02:59AM 1.3886 -69.6825 139° Southeast  Level Estimated
03:00AM 1.2911 -69.5982 139° Southeast  Level Estimated
03:01AM 1.1937 -69.5138 139° Southeast  Level Estimated
03:02AM 1.0962 -69.4295 139° Southeast  Level Estimated
03:03AM 0.9987 -69.3451 139° Southeast  Level Estimated
03:04AM 0.9012 -69.2608 139° Southeast  Level Estimated
03:05AM 0.8037 -69.1765 139° Southeast  Level Estimated
03:06AM 0.7062 -69.0921 139° Southeast  Level Estimated
03:07AM 0.6087 -69.0078 139° Southeast  Level Estimated
03:08AM 0.5113 -68.9235 139° Southeast  Level Estimated
03:09AM 0.4138 -68.8392 139° Southeast  Level Estimated
03:10AM 0.3163 -68.7549 139° Southeast  Level Estimated
03:11AM 0.2188 -68.6706 139° Southeast  Level Estimated
03:12AM 0.1213 -68.5863 139° Southeast  Level Estimated
03:13AM 0.0238 -68.5020 139° Southeast  Level Estimated
03:14AM -0.0737 -68.4176 139° Southeast  Level Estimated
03:15AM -0.1712 -68.3333 139° Southeast  Level Estimated
03:16AM -0.2687 -68.2490 139° Southeast  Level Estimated
03:17AM -0.3661 -68.1647 139° Southeast  Level Estimated
03:18AM -0.4636 -68.0804 139° Southeast  Level Estimated
03:19AM -0.5611 -67.9961 139° Southeast  Level Estimated
03:20AM -0.6586 -67.9118 139° Southeast  Level Estimated
03:21AM -0.7561 -67.8274 139° Southeast  Level Estimated
03:22AM -0.8536 -67.7431 139° Southeast  Level Estimated
03:23AM -0.9511 -67.6588 139° Southeast  Level Estimated
03:24AM -1.0486 -67.5744 139° Southeast  Level Estimated
03:25AM -1.1460 -67.4901 139° Southeast  Level Estimated
03:26AM -1.2435 -67.4057 139° Southeast  Level Estimated
03:27AM -1.3410 -67.3214 139° Southeast  Level Estimated
03:28AM -1.4385 -67.2370 139° Southeast  Level Estimated
03:29AM -1.5359 -67.1527 139° Southeast  Level Estimated
03:30AM -1.6334 -67.0683 139° Southeast  Level Estimated
03:31AM -1.7309 -66.9839 139° Southeast  Level Estimated
03:32AM -1.8283 -66.8995 139° Southeast  Level Estimated
03:33AM -1.9258 -66.8151 139° Southeast  Level Estimated
03:34AM -2.0233 -66.7307 139° Southeast  Level Estimated
03:35AM -2.1207 -66.6463 139° Southeast  Level Estimated
03:36AM -2.2181 -66.5619 139° Southeast  Level Estimated
03:37AM -2.3156 -66.4774 139° Southeast  Level Estimated
03:38AM -2.4130 -66.3930 139° Southeast  Level Estimated
03:39AM -2.5104 -66.3085 139° Southeast  Level Estimated
03:40AM -2.6079 -66.2240 139° Southeast  Level Estimated
03:41AM -2.7053 -66.1395 139° Southeast  Level Estimated
03:42AM -2.8027 -66.0550 139° Southeast  Level Estimated
03:43AM -2.9001 -65.9705 139° Southeast  Level Estimated
03:44AM -2.9975 -65.8860 139° Southeast  Level Estimated
03:45AM -3.0949 -65.8014 139° Southeast  Level Estimated
03:46AM -3.1923 -65.7168 139° Southeast  Level Estimated
03:47AM -3.2896 -65.6323 139° Southeast  Level Estimated
03:48AM -3.3870 -65.5477 139° Southeast  Level Estimated
03:49AM -3.4844 -65.4630 139° Southeast  Level Estimated
03:50AM -3.5817 -65.3784 139° Southeast  Level Estimated
03:51AM -3.6791 -65.2938 139° Southeast  Level Estimated
03:52AM -3.7764 -65.2091 139° Southeast  Level Estimated
03:53AM -3.8737 -65.1244 139° Southeast  Level Estimated
03:54AM -3.9711 -65.0397 139° Southeast  Level Estimated
03:55AM -4.0684 -64.9550 139° Southeast  Level Estimated
03:56AM -4.1657 -64.8702 139° Southeast  Level Estimated
03:57AM -4.2630 -64.7854 139° Southeast  Level Estimated
03:58AM -4.3603 -64.7007 139° Southeast  Level Estimated
03:59AM -4.4576 -64.6158 139° Southeast  Level Estimated
04:00AM -4.5548 -64.5310 139° Southeast  Level Estimated
04:01AM -4.6521 -64.4462 139° Southeast  Level Estimated
04:02AM -4.7493 -64.3613 139° Southeast  Level Estimated
04:03AM -4.8466 -64.2764 139° Southeast  Level Estimated
04:04AM -4.9438 -64.1914 139° Southeast  Level Estimated
04:05AM -5.0410 -64.1065 139° Southeast  Level Estimated
04:06AM -5.1382 -64.0215 139° Southeast  Level Estimated
04:07AM -5.2354 -63.9365 139° Southeast  Level Estimated
04:08AM -5.3326 -63.8515 139° Southeast  Level Estimated
04:09AM -5.4298 -63.7664 139° Southeast  Level Estimated
04:10AM -5.5269 -63.6813 139° Southeast  Level Estimated
04:11AM -5.6241 -63.5962 139° Southeast  Level Estimated
04:12AM -5.7212 -63.5111 139° Southeast  Level Estimated
04:13AM -5.8183 -63.4259 139° Southeast  Level Estimated
04:14AM -5.9154 -63.3407 139° Southeast  Level Estimated
04:15AM -6.0125 -63.2555 139° Southeast  Level Estimated
04:16AM -6.1096 -63.1702 139° Southeast  Level Estimated
04:17AM -6.2067 -63.0849 139° Southeast  Level Estimated
04:18AM -6.3038 -62.9996 139° Southeast  Level Estimated
04:19AM -6.4008 -62.9142 139° Southeast  Level Estimated
04:20AM -6.4978 -62.8288 139° Southeast  Level Estimated
04:21AM -6.5948 -62.7434 139° Southeast  Level Estimated
04:22AM -6.6918 -62.6580 139° Southeast  Level Estimated
04:23AM -6.7888 -62.5725 139° Southeast  Level Estimated
04:24AM -6.8858 -62.4870 139° Southeast  Level Estimated
04:25AM -6.9827 -62.4014 139° Southeast  Level Estimated
04:26AM -7.0797 -62.3158 139° Southeast  Level Estimated
04:27AM -7.1766 -62.2302 139° Southeast  Level Estimated
04:28AM -7.2735 -62.1445 139° Southeast  Level Estimated
04:29AM -7.3704 -62.0588 139° Southeast  Level Estimated
04:30AM -7.4673 -61.9731 139° Southeast  Level Estimated
04:31AM -7.5641 -61.8873 139° Southeast  Level Estimated
04:32AM -7.6610 -61.8015 139° Southeast  Level Estimated
04:33AM -7.7578 -61.7156 139° Southeast  Level Estimated
04:34AM -7.8546 -61.6297 139° Southeast  Level Estimated
04:35AM -7.9514 -61.5438 139° Southeast  Level Estimated
04:36AM -8.0482 -61.4578 139° Southeast  Level Estimated
04:37AM -8.1449 -61.3718 139° Southeast  Level Estimated
04:38AM -8.2416 -61.2857 139° Southeast  Level Estimated
04:39AM -8.3384 -61.1996 139° Southeast  Level Estimated
04:40AM -8.4351 -61.1135 139° Southeast  Level Estimated
04:41AM -8.5317 -61.0273 139° Southeast  Level Estimated
04:42AM -8.6284 -60.9411 139° Southeast  Level Estimated
04:43AM -8.7250 -60.8548 139° Southeast  Level Estimated
04:44AM -8.8217 -60.7685 139° Southeast  Level Estimated
04:45AM -8.9183 -60.6821 139° Southeast  Level Estimated
04:46AM -9.0148 -60.5957 139° Southeast  Level Estimated
04:47AM -9.1114 -60.5092 139° Southeast  Level Estimated
04:48AM -9.2079 -60.4227 139° Southeast  Level Estimated
04:49AM -9.3045 -60.3362 138° Southeast  Level Estimated
04:50AM -9.4010 -60.2496 138° Southeast  Level Estimated
04:51AM -9.4974 -60.1629 138° Southeast  Level Estimated
04:52AM -9.5939 -60.0762 138° Southeast  Level Estimated
04:53AM -9.6903 -59.9895 138° Southeast  Level Estimated
04:54AM -9.7867 -59.9027 138° Southeast  Level Estimated
04:55AM -9.8831 -59.8158 138° Southeast  Level Estimated
04:56AM -9.9795 -59.7290 138° Southeast  Level Estimated
04:57AM -10.0759 -59.6420 138° Southeast  Level Estimated
04:58AM -10.1723 -59.5549 138° Southeast  Level Estimated
04:59AM -10.2688 -59.4677 138° Southeast  Level Estimated
05:00AM -10.3653 -59.3804 138° Southeast  Level Estimated
05:01AM -10.4617 -59.2931 138° Southeast  Level Estimated
05:02AM -10.5581 -59.2057 138° Southeast  Level Estimated
05:03AM -10.6545 -59.1183 138° Southeast  Level Estimated
05:04AM -10.7508 -59.0308 138° Southeast  Level Estimated
05:05AM -10.8471 -58.9433 138° Southeast  Level Estimated
05:06AM -10.9434 -58.8557 138° Southeast  Level Estimated
05:07AM -11.0397 -58.7681 138° Southeast  Level Estimated
05:08AM -11.1360 -58.6804 138° Southeast  Level Estimated
05:09AM -11.2322 -58.5926 138° Southeast  Level Estimated
05:10AM -11.3284 -58.5048 138° Southeast  Level Estimated
05:11AM -11.4246 -58.4169 138° Southeast  Level Estimated
05:12AM -11.5207 -58.3290 138° Southeast  Level Estimated
05:13AM -11.6168 -58.2410 138° Southeast  Level Estimated
05:14AM -11.7129 -58.1529 138° Southeast  Level Estimated
05:15AM -11.8090 -58.0648 138° Southeast  Level Estimated
05:16AM -11.9050 -57.9766 138° Southeast  Level Estimated
05:17AM -12.0010 -57.8884 138° Southeast  Level Estimated
05:18AM -12.0970 -57.8001 138° Southeast  Level Estimated
05:19AM -12.1930 -57.7117 138° Southeast  Level Estimated
05:20AM -12.2889 -57.6233 138° Southeast  Level Estimated
05:21AM -12.3848 -57.5348 138° Southeast  Level Estimated
05:22AM -12.4807 -57.4462 138° Southeast  Level Estimated
05:23AM -12.5765 -57.3576 138° Southeast  Level Estimated
05:24AM -12.6723 -57.2689 138° Southeast  Level Estimated
05:25AM -12.7681 -57.1801 138° Southeast  Level Estimated
05:26AM -12.8639 -57.0913 138° Southeast  Level Estimated
05:27AM -12.9596 -57.0024 138° Southeast  Level Estimated
05:28AM -13.0553 -56.9134 138° Southeast  Level Estimated
05:29AM -13.1510 -56.8244 138° Southeast  Level Estimated
05:30AM -13.2466 -56.7353 138° Southeast  Level Estimated
05:31AM -13.3422 -56.6461 138° Southeast  Level Estimated
05:32AM -13.4377 -56.5569 138° Southeast  Level Estimated
05:33AM -13.5333 -56.4676 138° Southeast  Level Estimated
05:34AM -13.6288 -56.3782 138° Southeast  Level Estimated
05:35AM -13.7243 -56.2887 138° Southeast  Level Estimated
05:36AM -13.8197 -56.1992 138° Southeast  Level Estimated
05:37AM -13.9151 -56.1096 138° Southeast  Level Estimated
05:38AM -14.0105 -56.0199 138° Southeast  Level Estimated
05:39AM -14.1059 -55.9302 138° Southeast  Level Estimated
05:40AM -14.2012 -55.8403 138° Southeast  Level Estimated
05:41AM -14.2964 -55.7504 138° Southeast  Level Estimated
05:42AM -14.3917 -55.6605 138° Southeast  Level Estimated
05:43AM -14.4869 -55.5704 138° Southeast  Level Estimated
05:44AM -14.5821 -55.4803 137° Southeast  Level Estimated
05:45AM -14.6772 -55.3901 137° Southeast  Level Estimated
05:46AM -14.7723 -55.2998 137° Southeast  Level Estimated
05:47AM -14.8674 -55.2094 137° Southeast  Level Estimated
05:48AM -14.9625 -55.1189 137° Southeast  Level Estimated
05:49AM -15.0575 -55.0284 137° Southeast  Level Estimated
05:50AM -15.1524 -54.9378 137° Southeast  Level Estimated
05:51AM -15.2473 -54.8471 137° Southeast  Level Estimated
05:52AM -15.3422 -54.7564 137° Southeast  Level Estimated
05:53AM -15.4371 -54.6655 137° Southeast  Level Estimated
05:54AM -15.5319 -54.5746 137° Southeast  Level Estimated
05:55AM -15.6267 -54.4835 137° Southeast  Level Estimated
05:56AM -15.7214 -54.3924 137° Southeast  Level Estimated
05:57AM -15.8161 -54.3012 137° Southeast  Level Estimated
05:58AM -15.9108 -54.2099 137° Southeast  Level Estimated
05:59AM -16.0054 -54.1186 137° Southeast  Level Estimated
06:00AM -16.1000 -54.0271 137° Southeast  Level Estimated
06:01AM -16.1946 -53.9356 137° Southeast  Level Estimated
06:02AM -16.2891 -53.8440 137° Southeast  Level Estimated
06:03AM -16.3836 -53.7523 137° Southeast  Level Estimated
06:04AM -16.4778 -53.6606 137° Southeast  Level Estimated
06:05AM -16.5721 -53.5689 137° Southeast  Level Estimated
06:06AM -16.6663 -53.4771 137° Southeast  Level Estimated
06:07AM -16.7604 -53.3852 137° Southeast  Level Estimated
06:08AM -16.8545 -53.2932 137° Southeast  Level Estimated
06:09AM -16.9486 -53.2011 137° Southeast  Level Estimated
06:10AM -17.0426 -53.1089 137° Southeast  Level Estimated
06:11AM -17.1366 -53.0166 137° Southeast  Level Estimated
06:12AM -17.2306 -52.9242 137° Southeast  Level Estimated
06:13AM -17.3244 -52.8318 137° Southeast  Level Estimated
06:14AM -17.4183 -52.7392 137° Southeast  Level Estimated
06:15AM -17.5121 -52.6465 137° Southeast  Level Estimated
06:16AM -17.6059 -52.5538 137° Southeast  Level Estimated
06:17AM -17.6996 -52.4609 137° Southeast  Level Estimated
06:18AM -17.7933 -52.3680 137° Southeast  Level Estimated
06:19AM -17.8870 -52.2749 137° Southeast  Level Estimated
06:20AM -17.9806 -52.1818 137° Southeast  Level Estimated
06:21AM -18.0743 -52.0884 137° Southeast  Level Estimated
06:22AM -18.1679 -51.9949 137° Southeast  Level Estimated
06:23AM -18.2616 -51.9013 136° Southeast  Level Estimated
06:24AM -18.3552 -51.8076 136° Southeast  Level Estimated
06:25AM -18.4487 -51.7138 136° Southeast  Level Estimated
06:26AM -18.5422 -51.6199 136° Southeast  Level Estimated
06:26AM -18.8910 -50.7900 136° Southeast 459 528 41,000  Level FlightAware
06:27AM -18.6356 -51.5259 136° Southeast  Level Estimated
06:27AM -18.9560 -50.7170 133° Southeast 459 528 41,000  Level FlightAware
06:28AM -19.0260 -50.6420 135° Southeast 459 528 41,000  Level FlightAware
06:28AM -19.0980 -50.5640 134° Southeast 459 528 41,000  Level FlightAware
06:29AM -19.1560 -50.5000 134° Southeast 459 528 41,000  Level FlightAware
06:30AM -19.2460 -50.4020 134° Southeast 459 528 41,000  Level FlightAware
06:31AM -19.3310 -50.3080 134° Southeast 459 528 41,000  Level FlightAware
06:32AM -19.3840 -50.2510 135° Southeast 459 528 41,000  Level FlightAware
06:32AM -19.4430 -50.1850 133° Southeast 459 528 41,000  Level FlightAware
06:33AM -19.5040 -50.1190 134° Southeast 457 526 41,000  Level FlightAware
06:33AM -19.5390 -50.0800 134° Southeast 456 525 41,000  Level FlightAware
06:34AM -19.6040 -50.0080 134° Southeast 456 525 41,000  Level FlightAware
06:35AM -19.6630 -49.9430 134° Southeast 456 525 41,000  Level FlightAware
06:36AM -19.7280 -49.8730 135° Southeast 456 525 41,000  Level FlightAware
06:36AM -19.7920 -49.8020 134° Southeast 456 525 41,000  Level FlightAware
06:37AM -19.8740 -49.7130 134° Southeast 454 522 41,000  Level FlightAware
06:38AM -19.9310 -49.6510 134° Southeast 454 522 41,000  Level FlightAware
06:39AM -19.9940 -49.5810 134° Southeast 454 522 41,000  Level FlightAware
06:39AM -20.0550 -49.5140 134° Southeast 454 522 41,000  Level FlightAware
06:40AM -20.1190 -49.4440 134° Southeast 454 522 41,000  Level FlightAware
06:41AM -20.1790 -49.3780 134° Southeast 454 522 41,000  Level FlightAware
06:41AM -20.2430 -49.3070 134° Southeast 454 522 41,000  Level FlightAware
06:42AM -20.3010 -49.2430 134° Southeast 454 522 41,000  Level FlightAware
06:43AM -20.3850 -49.1500 134° Southeast 454 522 41,000  Level FlightAware
06:44AM -20.4450 -49.0840 134° Southeast 453 521 41,000  Level FlightAware
06:44AM -20.5060 -49.0170 134° Southeast 453 521 41,000  Level FlightAware
06:45AM -20.5670 -48.9490 134° Southeast 452 520 41,000  Level FlightAware
06:46AM -20.6300 -48.8790 134° Southeast 452 520 41,000  Level FlightAware
06:47AM -20.6930 -48.8080 133° Southeast 452 520 41,000  Level FlightAware
06:47AM -20.7510 -48.7430 134° Southeast 451 519 41,000  Level FlightAware
06:48AM -20.8040 -48.6850 134° Southeast 449 517 41,000  Level FlightAware
06:49AM -20.8610 -48.6210 134° Southeast 449 517 41,000  Level FlightAware
06:49AM -20.9240 -48.5490 133° Southeast 447 514 41,000  Level FlightAware
06:50AM -20.9810 -48.4850 134° Southeast 447 514 41,000  Level FlightAware
06:51AM -21.0390 -48.4210 134° Southeast 447 514 41,000  Level FlightAware
06:51AM -21.1000 -48.3510 133° Southeast 445 512 41,000  Level FlightAware
06:52AM -21.1580 -48.2860 134° Southeast 445 512 41,000  Level FlightAware
06:53AM -21.2140 -48.2220 133° Southeast 444 511 41,000  Level FlightAware
06:53AM -21.2700 -48.1590 134° Southeast 444 511 41,000  Level FlightAware
06:54AM -21.3270 -48.0940 133° Southeast 444 511 41,000  Level FlightAware
06:55AM -21.3840 -48.0300 134° Southeast 445 512 41,000  Level FlightAware
06:55AM -21.4500 -47.9550 133° Southeast 447 514 41,000  Level FlightAware
06:56AM -21.5060 -47.8920 134° Southeast 447 514 41,000  Level FlightAware
06:57AM -21.5690 -47.8200 133° Southeast 447 514 41,000 -300 Level FlightAware
06:57AM -21.6240 -47.7570 133° Southeast 440 506 40,600 -780 Descending FlightAware
06:58AM -21.6830 -47.6900 133° Southeast 434 499 40,000 -900 Descending FlightAware
06:59AM -21.7440 -47.6210 134° Southeast 432 497 39,300 -1,260 Descending FlightAware
07:00AM -21.8660 -47.5290 145° Southeast 436 502 37,300 -1,440 Descending FlightAware
07:01AM -21.9590 -47.4710 150° Southeast 440 506 36,300 -1,980 Descending FlightAware
07:02AM -22.0270 -47.4260 148° Southeast 446 513 34,800 -3,120 Descending FlightAware
07:02AM -22.1070 -47.3770 150° Southeast 465 535 32,000 -3,540 Descending FlightAware
07:03AM -22.1860 -47.3310 152° Southeast 465 535 29,800 -2,820 Descending FlightAware
07:04AM -22.2690 -47.2820 151° Southeast 456 525 28,000 -2,460 Descending FlightAware
07:05AM -22.3420 -47.2380 151° Southeast 440 506 26,400 -2,460 Descending FlightAware
07:05AM -22.4140 -47.1950 151° Southeast 419 482 24,700 -2,340 Descending FlightAware
07:06AM -22.4720 -47.1600 151° Southeast 407 468 23,400 -2,220 Descending FlightAware
07:06AM -22.5360 -47.1220 151° Southeast 400 460 22,000 -2,220 Descending FlightAware
07:07AM -22.6120 -47.0830 155° Southeast 392 451 20,300 -2,220 Descending FlightAware
07:08AM -22.6960 -47.0470 158° South 386 444 18,500 -2,160 Descending FlightAware
07:09AM -22.7650 -47.0190 159° South 380 437 17,000 -2,160 Descending FlightAware
07:09AM -22.8350 -46.9890 158° South 376 433 15,500 -1,860 Descending FlightAware
07:10AM -22.8970 -46.9630 159° South 359 413 14,600 -1,440 Descending FlightAware
07:11AM -22.9900 -46.9240 159° South 309 356 12,700 -1,620 Descending FlightAware
07:12AM -23.0740 -46.8890 159° South 280 322 11,100 -1,680 Descending FlightAware
07:13AM -23.1190 -46.8700 159° South 251 289 10,200 -1,080 Descending FlightAware
07:13AM -23.1490 -46.8570 158° South 241 277 9,900 -840 Descending FlightAware
07:14AM -23.1580 -46.8530 158° South 241 277 9,700 -1,140 Descending FlightAware
07:14AM -23.1950 -46.8380 160° South 238 274 9,100 -1,080 Descending FlightAware
07:15AM -23.2310 -46.8220 158° South 241 277 8,300 -1,140 Descending FlightAware
07:15AM -23.2740 -46.8040 159° South 238 274 7,700 -1,200 Descending FlightAware
07:16AM -23.3020 -46.7920 159° South 234 269 7,200 -780 Descending FlightAware
07:16AM -23.3340 -46.7790 160° South 234 269 7,000 -360 Descending FlightAware
07:17AM -23.3530 -46.7710 159° South 226 260 6,900 -180 Descending FlightAware
07:17AM -23.3680 -46.7640 157° South 221 254 6,900  Level FlightAware
07:17AM -23.3820 -46.7540 147° Southeast 220 253 6,900 -480 Level FlightAware
07:17AM -23.3910 -46.7460 141° Southeast 223 257 6,700 -1,200 Descending FlightAware
07:18AM -23.4060 -46.7310 137° Southeast 228 262 6,300 -1,320 Descending FlightAware
07:18AM -23.4280 -46.7110 140° Southeast 230 265 5,700 -1,380 Descending FlightAware
07:18AM -23.4380 -46.7020 140° Southeast 219 252 5,400 -1,140 Descending FlightAware
07:19AM -23.4520 -46.6820 127° Southeast 209 241 5,000 -840 Descending FlightAware
07:19AM -23.4640 -46.6560 117° Southeast 205 236 4,700 -660 Descending FlightAware
07:20AM -23.4740 -46.6290 112° Southeast 200 230 4,400 -540 Descending FlightAware
07:20AM -23.4700 -46.6000 81° East 195 224 4,200 -720 Descending FlightAware
07:21AM -23.4630 -46.5780 71° East 173 199 3,800 -1,020 Descending FlightAware
07:21AM -23.4600 -46.5640 77° East 157 181 3,500 -840 Descending FlightAware
07:21AM -23.4540 -46.5450 71° East 136 157 3,200 -660 Descending FlightAware
07:22AM -23.4490 -46.5260 74° East 137 158 2,900 -780 Descending FlightAware
07:22AM -23.4450 -46.5080 76° East 131 151 2,500 -660 Descending FlightAware
07:23AM -23.4400 -46.4910 72° East 135 155 2,200 -540 Descending FlightAware
07:23AM -23.4350 -46.4720 74° East 76 87 -5,280 Descending FlightAware